Pagina principale
METAR-TAF:

METAR-TAF

Aeroporti :

Aeroporto di Catania-Fontanarossa

Catania, Italia

latitudine: 37-28N, longitudine: 015-03E, altezza: 11 m

Osservazione

Il bollettino è stato emesso 29 minuti fa, alle 18:50 UTC
Vento 2 kt da sud-est
Temperature 17°C
Umidità 82%
Pressione 1009 hPa
Visibilità 10 km o più
nessuna nube inferiore a 1500 m e nessun cumulonembo

METAR: LICC 191850Z 14002KT CAVOK 17/14 Q1009

Ora: 21:19 (19:19 UTC)

Previsione

Il bollettino è stato emesso 2 ore e 19 minuti fa, alle 17:00 UTC
Previsione valida dal 19 alle 18 UTC al 20 alle 18 UTC
Vento 5 kt da direzioni variabili
Visibilità 10 km o più
Nubi sparse ad un'altezza di 3000 ft
Evoluzione graduale
dal 20 alle 03 UTC al 20 alle 06 UTC
Vento 10 kt da ovest/sud-ovest
Evoluzione graduale
dal 20 alle 10 UTC al 20 alle 12 UTC
Vento 10 kt da est

TAF: LICC 191700Z 1918/2018 VRB05KT 9999 SCT030 BECMG 2003/2006 25010KT BECMG 2010/2012 08010KT

Osservazioni e previsioni meteorologiche di più di 4000 aeroporti (messaggi METAR e TAF).

Le stazioni disponibili sono rappresentate dai dischi gialli e rossi sulla carta.

Puntare il mouse per vedere il nome della stazione.

Clicca sopra per visualizzare le osservazioni e previsioni meteorologiche.

Per cambiare la mappa : fare clic sui pulsanti verdi con una croce nera per ingrandire, il pulsante verde con un trattino per diminuire, o sulla freccia verde per le mappe adiacenti.


METAR-TAF: